createdAt,value
2023-02-06T13:08:51.970Z,4.40
2023-02-06T13:12:09.471Z,4.10
2023-02-06T13:15:24.315Z,3.72
2023-02-06T13:18:52.839Z,3.90
2023-02-06T13:22:39.727Z,4.05
2023-02-06T13:25:50.787Z,3.45
2023-02-06T13:29:03.653Z,3.72
2023-02-06T13:32:42.438Z,4.78
2023-02-06T13:35:59.913Z,2.85
2023-02-06T13:39:16.521Z,2.83
2023-02-06T13:42:40.855Z,2.95
2023-02-06T13:45:51.634Z,3.63
2023-02-06T13:49:11.232Z,4.80
2023-02-06T13:52:26.652Z,3.10
2023-02-06T13:55:39.525Z,2.72
2023-02-06T13:58:51.732Z,4.00
2023-02-06T14:01:56.449Z,4.15
2023-02-06T14:05:04.282Z,3.10
2023-02-06T14:08:14.928Z,3.35
2023-02-06T14:11:58.469Z,2.55
2023-02-06T14:15:27.401Z,2.30
2023-02-06T14:18:42.890Z,2.70
2023-02-06T14:22:01.567Z,3.08
2023-02-06T14:25:23.779Z,2.95
2023-02-06T14:28:38.825Z,2.35
2023-02-06T14:32:00.991Z,2.45
2023-02-06T14:35:28.988Z,3.25
2023-02-06T14:39:03.768Z,2.90
2023-02-06T14:42:12.581Z,3.38
2023-02-06T14:45:28.482Z,2.58
2023-02-06T14:48:39.890Z,2.97
2023-02-06T14:51:51.786Z,2.55
2023-02-06T14:54:55.930Z,3.08
2023-02-06T14:58:03.457Z,2.97
2023-02-06T15:01:20.556Z,2.67
2023-02-06T15:04:31.317Z,2.38
2023-02-06T15:07:37.716Z,2.33
2023-02-06T15:10:45.848Z,3.22
2023-02-06T15:13:52.238Z,3.88
2023-02-06T15:16:59.500Z,2.55
2023-02-06T15:20:26.306Z,2.47
2023-02-06T15:23:43.759Z,5.20
2023-02-06T15:26:53.022Z,2.10
2023-02-06T15:29:59.367Z,2.58
2023-02-06T15:33:03.316Z,2.30
2023-02-06T15:36:23.313Z,2.90
2023-02-06T15:39:27.819Z,2.83
2023-02-06T15:42:34.200Z,2.70
2023-02-06T15:45:39.907Z,3.00
2023-02-06T15:48:52.142Z,2.85
2023-02-06T15:51:57.925Z,2.28
2023-02-06T15:55:04.212Z,2.55
2023-02-06T15:58:08.146Z,4.00
2023-02-06T16:01:17.687Z,3.13
2023-02-06T16:04:25.406Z,2.95
2023-02-06T16:07:35.277Z,2.20
2023-02-06T16:10:40.965Z,3.28
2023-02-06T16:13:47.459Z,2.95
2023-02-06T16:16:59.509Z,3.63
2023-02-06T16:20:07.753Z,4.65
2023-02-06T16:23:26.024Z,4.63
2023-02-06T16:26:33.339Z,5.22
2023-02-06T16:29:38.119Z,5.18
2023-02-06T16:32:43.993Z,5.15
2023-02-06T16:39:03.589Z,3.60
2023-02-06T16:42:08.701Z,4.38
2023-02-06T16:45:22.853Z,3.13
2023-02-06T16:48:26.665Z,4.00
2023-02-06T16:51:33.671Z,4.07
2023-02-06T16:54:39.623Z,5.28
2023-02-06T16:57:46.821Z,6.32
2023-02-06T17:00:51.560Z,4.70
2023-02-06T17:03:57.756Z,6.10
2023-02-06T17:07:01.648Z,4.78
2023-02-06T17:10:10.200Z,6.38
2023-02-06T17:13:18.280Z,4.90
2023-02-06T17:16:26.326Z,5.53
2023-02-06T17:19:30.141Z,5.82
2023-02-06T17:22:36.013Z,5.38
2023-02-06T17:25:43.536Z,5.22
2023-02-06T17:28:50.161Z,5.22
2023-02-06T17:31:54.087Z,6.97
2023-02-06T17:35:01.885Z,6.15
2023-02-06T17:38:06.095Z,5.55
2023-02-06T17:41:13.952Z,5.22
2023-02-06T17:44:19.368Z,4.57
2023-02-06T17:47:25.465Z,6.18
2023-02-06T17:50:30.178Z,7.10
2023-02-06T17:53:36.102Z,7.05
2023-02-06T17:59:47.917Z,5.03
2023-02-06T18:02:52.480Z,6.93
2023-02-06T18:05:59.707Z,5.90
2023-02-06T18:09:03.754Z,8.05
2023-02-06T18:12:11.641Z,6.78
2023-02-06T18:15:15.737Z,7.50
2023-02-06T18:18:21.874Z,9.48
2023-02-06T18:21:28.376Z,9.15
2023-02-06T18:24:34.287Z,11.55
2023-02-06T18:30:46.706Z,20.10
2023-02-06T18:33:50.541Z,13.52
2023-02-06T18:36:56.917Z,9.70
2023-02-06T18:40:00.716Z,8.13
2023-02-06T18:43:09.141Z,8.77
2023-02-06T18:46:12.960Z,8.82
2023-02-06T18:49:18.928Z,9.23
2023-02-06T18:55:28.757Z,8.88
2023-02-06T18:58:34.481Z,8.57
2023-02-06T19:01:40.367Z,10.18
2023-02-06T19:07:51.630Z,7.53
2023-02-06T19:10:58.712Z,7.32
2023-02-06T19:14:07.943Z,8.30
2023-02-06T19:17:11.793Z,8.27
2023-02-06T19:20:17.797Z,8.15
2023-02-06T19:23:21.570Z,8.75
2023-02-06T19:26:29.293Z,8.25
2023-02-06T19:29:36.536Z,7.57
2023-02-06T19:32:43.078Z,16.27
2023-02-06T19:35:46.918Z,16.35
2023-02-06T19:38:55.932Z,18.25
2023-02-06T19:41:59.733Z,12.60
2023-02-06T19:45:08.505Z,12.20
2023-02-06T19:48:13.353Z,11.07
2023-02-06T19:51:21.422Z,15.93
2023-02-06T19:54:25.261Z,16.13
2023-02-06T19:57:31.145Z,15.07
2023-02-06T20:03:44.602Z,13.63
2023-02-06T20:06:50.510Z,12.98
2023-02-06T20:09:56.388Z,12.98
2023-02-06T20:16:14.926Z,10.48
2023-02-06T20:19:21.739Z,12.23
2023-02-06T20:22:27.739Z,13.93
2023-02-06T20:25:31.879Z,14.88
2023-02-06T20:28:37.837Z,10.80
2023-02-06T20:34:49.302Z,10.52
2023-02-06T20:40:58.742Z,8.85
2023-02-06T20:47:10.450Z,8.63
2023-02-06T20:50:15.022Z,8.60
2023-02-06T20:53:20.896Z,8.30
2023-02-06T20:59:30.722Z,11.82
2023-02-06T21:05:42.185Z,19.33
2023-02-06T21:11:52.764Z,21.10
2023-02-06T21:18:04.200Z,17.35
2023-02-06T21:21:10.476Z,14.07
2023-02-06T21:24:16.977Z,12.48
2023-02-06T21:27:20.846Z,11.48
2023-02-06T21:30:26.812Z,12.95
2023-02-06T21:33:32.846Z,11.95
2023-02-06T21:36:40.289Z,12.10
2023-02-06T21:39:44.502Z,14.07
2023-02-06T21:42:50.384Z,10.95
2023-02-06T21:49:08.609Z,9.18
2023-02-06T21:52:12.381Z,9.20
2023-02-06T21:55:18.421Z,8.38
2023-02-06T21:58:22.256Z,8.48
2023-02-06T22:01:30.237Z,8.75
2023-02-06T22:04:35.975Z,8.88
2023-02-06T22:07:41.794Z,10.30
2023-02-06T22:13:51.763Z,10.75
2023-02-06T22:16:55.714Z,8.77
2023-02-06T22:20:03.517Z,8.68
2023-02-06T22:23:07.296Z,9.80
2023-02-06T22:26:15.184Z,9.43
2023-02-06T22:29:19.493Z,8.70
2023-02-06T22:32:25.373Z,8.98
2023-02-06T22:38:37.229Z,8.82
2023-02-06T22:41:43.028Z,9.15
2023-02-06T22:44:49.167Z,9.82
2023-02-06T22:47:53.049Z,9.95
2023-02-06T22:51:06.302Z,10.13
2023-02-06T22:54:10.824Z,9.32
2023-02-06T22:57:16.670Z,10.23
2023-02-06T23:03:26.194Z,11.55
2023-02-06T23:09:40.194Z,11.20
2023-02-06T23:12:44.027Z,10.23
2023-02-06T23:15:49.907Z,11.48
2023-02-06T23:18:55.819Z,11.20
2023-02-06T23:22:01.597Z,11.45
2023-02-06T23:25:09.560Z,11.95
2023-02-06T23:28:13.399Z,12.27
2023-02-06T23:31:19.315Z,11.75
2023-02-06T23:34:24.314Z,11.52
2023-02-06T23:37:32.085Z,10.77
2023-02-06T23:40:36.722Z,12.23
2023-02-06T23:43:43.135Z,11.32
2023-02-06T23:46:47.142Z,11.13
2023-02-06T23:49:52.912Z,12.52
2023-02-06T23:56:10.369Z,13.75
2023-02-06T23:59:14.274Z,14.27
